sensor_id;sensor_type;location;lat;lon;timestamp;pressure;altitude;pressure_sealevel;temperature;humidity
72570;BME280;60594;50.204;8.844;2023-03-01T00:01:03;101150.31;;;-0.49;74.85
72570;BME280;60594;50.204;8.844;2023-03-01T00:03:30;101153.06;;;-0.55;75.19
72570;BME280;60594;50.204;8.844;2023-03-01T00:05:56;101155.50;;;-0.48;75.06
72570;BME280;60594;50.204;8.844;2023-03-01T00:08:24;101149.34;;;-0.45;74.86
72570;BME280;60594;50.204;8.844;2023-03-01T00:11:03;101149.53;;;-0.53;74.91
72570;BME280;60594;50.204;8.844;2023-03-01T00:13:30;101152.88;;;-0.46;74.85
72570;BME280;60594;50.204;8.844;2023-03-01T00:15:56;101153.91;;;-0.55;75.48
72570;BME280;60594;50.204;8.844;2023-03-01T00:18:24;101159.94;;;-0.50;74.96
72570;BME280;60594;50.204;8.844;2023-03-01T00:20:54;101152.03;;;-0.48;75.66
72570;BME280;60594;50.204;8.844;2023-03-01T00:23:22;101144.16;;;-0.48;75.19
72570;BME280;60594;50.204;8.844;2023-03-01T00:25:49;101147.63;;;-0.46;75.58
72570;BME280;60594;50.204;8.844;2023-03-01T00:28:16;101153.06;;;-0.55;75.63
72570;BME280;60594;50.204;8.844;2023-03-01T00:30:42;101142.44;;;-0.49;75.51
72570;BME280;60594;50.204;8.844;2023-03-01T00:33:09;101142.94;;;-0.72;76.69
72570;BME280;60594;50.204;8.844;2023-03-01T00:35:35;101139.34;;;-0.68;75.84
72570;BME280;60594;50.204;8.844;2023-03-01T00:38:02;101139.34;;;-0.68;76.03
72570;BME280;60594;50.204;8.844;2023-03-01T00:40:33;101133.53;;;-0.82;77.62
72570;BME280;60594;50.204;8.844;2023-03-01T00:43:01;101136.84;;;-0.74;76.23
72570;BME280;60594;50.204;8.844;2023-03-01T00:45:27;101135.00;;;-0.69;76.08
72570;BME280;60594;50.204;8.844;2023-03-01T00:47:54;101134.75;;;-0.55;75.84
72570;BME280;60594;50.204;8.844;2023-03-01T00:50:20;101129.63;;;-0.61;75.63
72570;BME280;60594;50.204;8.844;2023-03-01T00:52:52;101133.34;;;-0.73;77.31
72570;BME280;60594;50.204;8.844;2023-03-01T00:55:19;101129.97;;;-0.79;77.54
72570;BME280;60594;50.204;8.844;2023-03-01T00:57:45;101137.59;;;-0.69;77.08
72570;BME280;60594;50.204;8.844;2023-03-01T01:00:12;101127.16;;;-0.70;77.96
72570;BME280;60594;50.204;8.844;2023-03-01T01:02:38;101128.06;;;-0.71;77.60
72570;BME280;60594;50.204;8.844;2023-03-01T01:05:06;101117.47;;;-0.64;77.38
72570;BME280;60594;50.204;8.844;2023-03-01T01:07:33;101108.56;;;-0.55;76.71
72570;BME280;60594;50.204;8.844;2023-03-01T01:10:00;101114.06;;;-0.69;77.00
72570;BME280;60594;50.204;8.844;2023-03-01T01:12:26;101104.38;;;-0.64;77.28
72570;BME280;60594;50.204;8.844;2023-03-01T01:14:52;101100.81;;;-0.60;76.66
72570;BME280;60594;50.204;8.844;2023-03-01T01:17:19;101100.72;;;-0.55;76.28
72570;BME280;60594;50.204;8.844;2023-03-01T01:19:46;101096.16;;;-0.46;75.83
72570;BME280;60594;50.204;8.844;2023-03-01T01:22:12;101099.72;;;-0.50;75.59
72570;BME280;60594;50.204;8.844;2023-03-01T01:24:39;101084.16;;;-0.57;76.47
72570;BME280;60594;50.204;8.844;2023-03-01T01:27:05;101080.78;;;-0.61;76.38
72570;BME280;60594;50.204;8.844;2023-03-01T01:29:33;101079.03;;;-0.62;76.38
72570;BME280;60594;50.204;8.844;2023-03-01T01:31:59;101076.63;;;-0.71;77.77
72570;BME280;60594;50.204;8.844;2023-03-01T01:34:26;101079.97;;;-0.64;76.61
72570;BME280;60594;50.204;8.844;2023-03-01T01:36:53;101077.41;;;-0.69;77.13
72570;BME280;60594;50.204;8.844;2023-03-01T01:39:20;101073.00;;;-0.65;76.54
72570;BME280;60594;50.204;8.844;2023-03-01T01:41:47;101067.63;;;-0.59;76.50
72570;BME280;60594;50.204;8.844;2023-03-01T01:44:18;101065.16;;;-0.65;77.64
72570;BME280;60594;50.204;8.844;2023-03-01T01:47:05;101065.84;;;-0.57;76.68
72570;BME280;60594;50.204;8.844;2023-03-01T01:49:54;101063.13;;;-0.51;76.84
72570;BME280;60594;50.204;8.844;2023-03-01T01:52:33;101069.19;;;-0.51;75.65
72570;BME280;60594;50.204;8.844;2023-03-01T01:55:09;101074.69;;;-0.63;76.96
72570;BME280;60594;50.204;8.844;2023-03-01T01:57:43;101079.97;;;-0.64;77.00
72570;BME280;60594;50.204;8.844;2023-03-01T02:00:20;101072.09;;;-0.64;76.50
72570;BME280;60594;50.204;8.844;2023-03-01T02:02:49;101087.44;;;-0.48;76.00
72570;BME280;60594;50.204;8.844;2023-03-01T02:07:56;101091.94;;;-0.53;76.33
72570;BME280;60594;50.204;8.844;2023-03-01T02:10:24;101084.06;;;-0.51;76.17
72570;BME280;60594;50.204;8.844;2023-03-01T02:12:53;101088.41;;;-0.52;76.19
72570;BME280;60594;50.204;8.844;2023-03-01T02:15:21;101095.09;;;-0.80;77.42
72570;BME280;60594;50.204;8.844;2023-03-01T02:17:47;101083.81;;;-0.82;77.22
72570;BME280;60594;50.204;8.844;2023-03-01T02:20:27;101074.25;;;-0.83;78.00
72570;BME280;60594;50.204;8.844;2023-03-01T02:22:59;101073.69;;;-0.98;78.97
72570;BME280;60594;50.204;8.844;2023-03-01T02:30:45;101059.44;;;-0.85;77.53
72570;BME280;60594;50.204;8.844;2023-03-01T02:33:33;101057.66;;;-0.82;78.18
72570;BME280;60594;50.204;8.844;2023-03-01T02:36:06;101038.44;;;-0.81;77.43
72570;BME280;60594;50.204;8.844;2023-03-01T02:38:34;101044.69;;;-0.88;77.79
72570;BME280;60594;50.204;8.844;2023-03-01T02:41:02;101054.28;;;-0.87;78.03
72570;BME280;60594;50.204;8.844;2023-03-01T02:43:32;101041.59;;;-1.06;78.51
72570;BME280;60594;50.204;8.844;2023-03-01T02:46:05;101033.69;;;-1.03;78.35
72570;BME280;60594;50.204;8.844;2023-03-01T02:48:58;101034.47;;;-0.98;77.77
72570;BME280;60594;50.204;8.844;2023-03-01T02:56:42;101023.13;;;-0.99;78.91
72570;BME280;60594;50.204;8.844;2023-03-01T02:59:10;101030.66;;;-0.84;77.41
72570;BME280;60594;50.204;8.844;2023-03-01T03:01:37;101031.13;;;-1.06;78.82
72570;BME280;60594;50.204;8.844;2023-03-01T03:04:08;101026.28;;;-1.26;79.67
72570;BME280;60594;50.204;8.844;2023-03-01T03:06:36;101009.72;;;-1.25;79.54
72570;BME280;60594;50.204;8.844;2023-03-01T03:09:04;101020.06;;;-1.19;78.79
72570;BME280;60594;50.204;8.844;2023-03-01T03:11:31;101021.78;;;-1.18;79.04
72570;BME280;60594;50.204;8.844;2023-03-01T03:13:58;100996.44;;;-1.14;78.03
72570;BME280;60594;50.204;8.844;2023-03-01T03:16:25;101010.53;;;-1.21;78.86
72570;BME280;60594;50.204;8.844;2023-03-01T03:18:52;101016.94;;;-1.39;79.97
72570;BME280;60594;50.204;8.844;2023-03-01T03:21:18;101010.97;;;-1.44;79.85
72570;BME280;60594;50.204;8.844;2023-03-01T03:23:45;101000.41;;;-1.38;80.16
72570;BME280;60594;50.204;8.844;2023-03-01T03:26:11;101012.56;;;-1.37;80.11
72570;BME280;60594;50.204;8.844;2023-03-01T03:28:39;100991.63;;;-1.35;79.54
72570;BME280;60594;50.204;8.844;2023-03-01T03:31:07;100992.56;;;-1.38;79.30
72570;BME280;60594;50.204;8.844;2023-03-01T03:33:34;100995.72;;;-1.24;78.78
72570;BME280;60594;50.204;8.844;2023-03-01T03:36:00;100979.22;;;-1.26;79.34
72570;BME280;60594;50.204;8.844;2023-03-01T03:38:27;100983.59;;;-1.26;79.01
72570;BME280;60594;50.204;8.844;2023-03-01T03:41:02;100987.25;;;-1.35;80.18
72570;BME280;60594;50.204;8.844;2023-03-01T03:43:31;100989.81;;;-1.32;79.48
72570;BME280;60594;50.204;8.844;2023-03-01T03:45:58;100991.72;;;-1.40;80.41
72570;BME280;60594;50.204;8.844;2023-03-01T03:48:25;100982.41;;;-1.54;80.27
72570;BME280;60594;50.204;8.844;2023-03-01T03:50:54;100970.22;;;-1.55;80.89
72570;BME280;60594;50.204;8.844;2023-03-01T03:53:23;100993.63;;;-1.49;80.62
72570;BME280;60594;50.204;8.844;2023-03-01T03:55:50;100987.63;;;-1.53;81.21
72570;BME280;60594;50.204;8.844;2023-03-01T03:58:19;100980.59;;;-1.51;80.93
72570;BME280;60594;50.204;8.844;2023-03-01T04:00:48;100985.69;;;-1.43;80.06
72570;BME280;60594;50.204;8.844;2023-03-01T04:03:16;100990.03;;;-1.44;80.38
72570;BME280;60594;50.204;8.844;2023-03-01T04:05:45;100992.88;;;-1.54;81.39
72570;BME280;60594;50.204;8.844;2023-03-01T04:08:12;100983.13;;;-1.46;80.77
72570;BME280;60594;50.204;8.844;2023-03-01T04:10:44;100983.94;;;-1.44;80.45
72570;BME280;60594;50.204;8.844;2023-03-01T04:13:14;100988.22;;;-1.40;80.35
72570;BME280;60594;50.204;8.844;2023-03-01T04:15:41;100992.25;;;-1.23;79.12
72570;BME280;60594;50.204;8.844;2023-03-01T04:18:12;100993.38;;;-1.36;80.24
72570;BME280;60594;50.204;8.844;2023-03-01T04:20:39;100989.66;;;-1.24;79.40
72570;BME280;60594;50.204;8.844;2023-03-01T04:23:14;100978.63;;;-1.38;79.22
72570;BME280;60594;50.204;8.844;2023-03-01T04:25:49;100983.78;;;-1.35;80.24
72570;BME280;60594;50.204;8.844;2023-03-01T04:28:21;100981.97;;;-1.33;79.31
72570;BME280;60594;50.204;8.844;2023-03-01T04:30:51;100972.34;;;-1.30;78.45
72570;BME280;60594;50.204;8.844;2023-03-01T04:33:18;100969.00;;;-1.36;79.29
72570;BME280;60594;50.204;8.844;2023-03-01T04:35:45;100966.31;;;-1.33;79.06
72570;BME280;60594;50.204;8.844;2023-03-01T04:38:11;100971.56;;;-1.35;79.48
72570;BME280;60594;50.204;8.844;2023-03-01T04:40:38;100950.66;;;-1.35;79.43
72570;BME280;60594;50.204;8.844;2023-03-01T04:43:05;100954.81;;;-1.25;79.11
72570;BME280;60594;50.204;8.844;2023-03-01T04:45:32;100959.84;;;-1.14;78.18
72570;BME280;60594;50.204;8.844;2023-03-01T04:48:00;100964.84;;;-1.04;78.08
72570;BME280;60594;50.204;8.844;2023-03-01T04:50:27;100962.22;;;-1.04;78.16
72570;BME280;60594;50.204;8.844;2023-03-01T04:52:54;100954.28;;;-0.99;78.23
72570;BME280;60594;50.204;8.844;2023-03-01T04:55:20;100960.56;;;-1.08;78.02
72570;BME280;60594;50.204;8.844;2023-03-01T04:57:46;100964.00;;;-1.07;78.85
72570;BME280;60594;50.204;8.844;2023-03-01T05:00:15;100961.34;;;-1.04;78.41
72570;BME280;60594;50.204;8.844;2023-03-01T05:02:51;100961.28;;;-1.01;78.07
72570;BME280;60594;50.204;8.844;2023-03-01T05:05:25;100943.09;;;-1.07;78.08
72570;BME280;60594;50.204;8.844;2023-03-01T05:07:56;100958.69;;;-1.03;77.45
72570;BME280;60594;50.204;8.844;2023-03-01T05:10:24;100961.13;;;-0.94;77.10
72570;BME280;60594;50.204;8.844;2023-03-01T05:12:51;100963.84;;;-0.98;77.91
72570;BME280;60594;50.204;8.844;2023-03-01T05:15:20;100971.03;;;-1.08;77.50
72570;BME280;60594;50.204;8.844;2023-03-01T05:17:48;100961.22;;;-0.98;76.52
72570;BME280;60594;50.204;8.844;2023-03-01T05:20:15;100956.97;;;-1.04;78.14
72570;BME280;60594;50.204;8.844;2023-03-01T05:22:41;100954.38;;;-1.04;77.08
72570;BME280;60594;50.204;8.844;2023-03-01T05:25:08;100970.50;;;-0.85;75.86
72570;BME280;60594;50.204;8.844;2023-03-01T05:27:35;100967.72;;;-0.76;76.07
72570;BME280;60594;50.204;8.844;2023-03-01T05:30:03;100962.53;;;-0.79;76.02
72570;BME280;60594;50.204;8.844;2023-03-01T05:32:46;100962.78;;;-0.90;77.30
72570;BME280;60594;50.204;8.844;2023-03-01T05:35:15;100974.59;;;-0.72;75.86
72570;BME280;60594;50.204;8.844;2023-03-01T05:37:43;100970.06;;;-0.66;74.97
72570;BME280;60594;50.204;8.844;2023-03-01T05:40:11;100962.16;;;-0.63;75.60
72570;BME280;60594;50.204;8.844;2023-03-01T05:42:49;100959.53;;;-0.63;75.97
72570;BME280;60594;50.204;8.844;2023-03-01T05:45:17;100963.22;;;-0.71;76.81
72570;BME280;60594;50.204;8.844;2023-03-01T05:47:45;100961.38;;;-1.06;76.88
72570;BME280;60594;50.204;8.844;2023-03-01T05:50:25;100965.25;;;-0.84;76.57
72570;BME280;60594;50.204;8.844;2023-03-01T05:53:03;100951.00;;;-0.69;75.05
72570;BME280;60594;50.204;8.844;2023-03-01T05:55:32;100958.84;;;-0.69;74.70
72570;BME280;60594;50.204;8.844;2023-03-01T05:58:00;100963.25;;;-0.73;75.63
72570;BME280;60594;50.204;8.844;2023-03-01T06:00:27;100959.59;;;-0.66;74.93
72570;BME280;60594;50.204;8.844;2023-03-01T06:02:55;100963.19;;;-0.70;75.67
72570;BME280;60594;50.204;8.844;2023-03-01T06:05:22;100957.22;;;-0.75;75.18
72570;BME280;60594;50.204;8.844;2023-03-01T06:07:49;100956.44;;;-0.80;75.53
72570;BME280;60594;50.204;8.844;2023-03-01T06:10:17;100962.63;;;-0.84;75.21
72570;BME280;60594;50.204;8.844;2023-03-01T06:12:44;100971.97;;;-0.72;74.95
72570;BME280;60594;50.204;8.844;2023-03-01T06:15:12;100965.13;;;-0.78;75.30
72570;BME280;60594;50.204;8.844;2023-03-01T06:17:41;100966.41;;;-0.95;76.43
72570;BME280;60594;50.204;8.844;2023-03-01T06:20:11;100954.88;;;-0.87;76.09
72570;BME280;60594;50.204;8.844;2023-03-01T06:22:38;100965.09;;;-0.76;75.68
72570;BME280;60594;50.204;8.844;2023-03-01T06:25:06;100954.53;;;-0.72;75.76
72570;BME280;60594;50.204;8.844;2023-03-01T06:27:32;100961.59;;;-0.77;75.98
72570;BME280;60594;50.204;8.844;2023-03-01T06:29:59;100963.44;;;-0.80;76.70
72570;BME280;60594;50.204;8.844;2023-03-01T06:32:26;100951.06;;;-0.74;76.65
72570;BME280;60594;50.204;8.844;2023-03-01T06:34:52;100959.03;;;-0.78;77.36
72570;BME280;60594;50.204;8.844;2023-03-01T06:37:19;100961.59;;;-0.77;77.29
72570;BME280;60594;50.204;8.844;2023-03-01T06:39:45;100957.34;;;-0.81;77.73
72570;BME280;60594;50.204;8.844;2023-03-01T06:42:11;100963.09;;;-0.65;77.40
72570;BME280;60594;50.204;8.844;2023-03-01T06:44:38;100957.72;;;-0.59;76.93
72570;BME280;60594;50.204;8.844;2023-03-01T06:47:05;100948.84;;;-0.54;75.59
72570;BME280;60594;50.204;8.844;2023-03-01T06:49:31;100947.22;;;-0.58;76.97
72570;BME280;60594;50.204;8.844;2023-03-01T06:51:57;100950.91;;;-0.66;77.93
72570;BME280;60594;50.204;8.844;2023-03-01T06:54:24;100936.09;;;-0.67;76.62
72570;BME280;60594;50.204;8.844;2023-03-01T06:56:51;100946.69;;;-0.72;76.90
72570;BME280;60594;50.204;8.844;2023-03-01T06:59:17;100952.63;;;-0.65;77.27
72570;BME280;60594;50.204;8.844;2023-03-01T07:01:44;100952.31;;;-0.52;75.89
72570;BME280;60594;50.204;8.844;2023-03-01T07:04:12;100946.91;;;-0.44;76.43
72570;BME280;60594;50.204;8.844;2023-03-01T07:06:39;100950.53;;;-0.50;76.23
72570;BME280;60594;50.204;8.844;2023-03-01T07:09:05;100953.53;;;-0.66;77.14
72570;BME280;60594;50.204;8.844;2023-03-01T07:11:32;100956.00;;;-0.60;76.82
72570;BME280;60594;50.204;8.844;2023-03-01T07:13:59;100959.81;;;-0.73;77.22
72570;BME280;60594;50.204;8.844;2023-03-01T07:16:26;100950.56;;;-0.91;77.49
72570;BME280;60594;50.204;8.844;2023-03-01T07:18:52;100959.47;;;-0.98;77.87
72570;BME280;60594;50.204;8.844;2023-03-01T07:21:19;100953.72;;;-1.13;79.41
72570;BME280;60594;50.204;8.844;2023-03-01T07:23:47;100947.47;;;-1.06;78.99
72570;BME280;60594;50.204;8.844;2023-03-01T07:26:14;100946.41;;;-0.98;78.46
72570;BME280;60594;50.204;8.844;2023-03-01T07:28:40;100945.94;;;-1.18;80.35
72570;BME280;60594;50.204;8.844;2023-03-01T07:31:07;100942.56;;;-1.21;79.89
72570;BME280;60594;50.204;8.844;2023-03-01T07:33:33;100945.53;;;-1.39;81.38
72570;BME280;60594;50.204;8.844;2023-03-01T07:36:02;100948.91;;;-1.34;80.51
72570;BME280;60594;50.204;8.844;2023-03-01T07:38:29;100922.19;;;-1.48;80.86
72570;BME280;60594;50.204;8.844;2023-03-01T07:41:00;100950.59;;;-1.32;80.67
72570;BME280;60594;50.204;8.844;2023-03-01T07:43:29;100927.94;;;-1.31;79.99
72570;BME280;60594;50.204;8.844;2023-03-01T07:45:59;100936.59;;;-1.29;81.24
72570;BME280;60594;50.204;8.844;2023-03-01T07:48:27;100937.28;;;-1.20;81.05
72570;BME280;60594;50.204;8.844;2023-03-01T07:50:53;100930.22;;;-1.16;80.94
72570;BME280;60594;50.204;8.844;2023-03-01T07:53:20;100939.28;;;-1.32;81.62
72570;BME280;60594;50.204;8.844;2023-03-01T07:55:46;100941.03;;;-1.33;82.20
72570;BME280;60594;50.204;8.844;2023-03-01T07:58:13;100933.97;;;-1.29;81.10
72570;BME280;60594;50.204;8.844;2023-03-01T08:00:39;100932.94;;;-1.21;81.29
72570;BME280;60594;50.204;8.844;2023-03-01T08:03:06;100931.13;;;-1.17;81.61
72570;BME280;60594;50.204;8.844;2023-03-01T08:05:33;100932.59;;;-1.06;81.06
72570;BME280;60594;50.204;8.844;2023-03-01T08:07:59;100934.41;;;-1.08;82.20
72570;BME280;60594;50.204;8.844;2023-03-01T08:10:26;100935.25;;;-1.07;82.69
72570;BME280;60594;50.204;8.844;2023-03-01T08:12:52;100939.28;;;-0.91;81.52
72570;BME280;60594;50.204;8.844;2023-03-01T08:15:19;100932.97;;;-0.83;80.79
72570;BME280;60594;50.204;8.844;2023-03-01T08:17:48;100943.81;;;-0.61;79.85
72570;BME280;60594;50.204;8.844;2023-03-01T08:20:15;100929.75;;;-0.57;79.97
72570;BME280;60594;50.204;8.844;2023-03-01T08:22:43;100923.94;;;-0.33;79.90
72570;BME280;60594;50.204;8.844;2023-03-01T08:25:09;100911.72;;;0.01;78.90
72570;BME280;60594;50.204;8.844;2023-03-01T08:27:36;100923.84;;;0.37;77.26
72570;BME280;60594;50.204;8.844;2023-03-01T08:30:02;100931.69;;;0.68;75.34
72570;BME280;60594;50.204;8.844;2023-03-01T08:32:29;100925.50;;;0.99;75.13
72570;BME280;60594;50.204;8.844;2023-03-01T08:34:55;100921.00;;;1.32;73.94
72570;BME280;60594;50.204;8.844;2023-03-01T08:37:22;100913.44;;;1.49;71.77
72570;BME280;60594;50.204;8.844;2023-03-01T08:39:49;100899.94;;;1.61;71.60
72570;BME280;60594;50.204;8.844;2023-03-01T08:42:15;100896.19;;;1.68;70.29
72570;BME280;60594;50.204;8.844;2023-03-01T08:44:42;100889.91;;;1.98;70.39
72570;BME280;60594;50.204;8.844;2023-03-01T08:47:08;100901.84;;;2.06;70.33
72570;BME280;60594;50.204;8.844;2023-03-01T08:49:34;100900.47;;;2.45;69.07
72570;BME280;60594;50.204;8.844;2023-03-01T08:52:02;100896.25;;;2.64;66.88
72570;BME280;60594;50.204;8.844;2023-03-01T08:54:28;100889.22;;;2.65;65.91
72570;BME280;60594;50.204;8.844;2023-03-01T08:56:55;100892.41;;;2.96;64.06
72570;BME280;60594;50.204;8.844;2023-03-01T08:59:21;100891.16;;;3.06;63.11
72570;BME280;60594;50.204;8.844;2023-03-01T09:01:48;100889.19;;;3.11;63.97
72570;BME280;60594;50.204;8.844;2023-03-01T09:04:15;100881.22;;;3.12;62.59
72570;BME280;60594;50.204;8.844;2023-03-01T09:06:43;100888.34;;;3.32;63.15
72570;BME280;60594;50.204;8.844;2023-03-01T09:09:14;100889.03;;;3.58;63.00
72570;BME280;60594;50.204;8.844;2023-03-01T09:11:42;100862.09;;;3.92;60.99
72570;BME280;60594;50.204;8.844;2023-03-01T09:14:11;100875.38;;;4.11;61.05
72570;BME280;60594;50.204;8.844;2023-03-01T09:16:38;100864.41;;;4.40;60.74
72570;BME280;60594;50.204;8.844;2023-03-01T09:19:05;100864.72;;;4.52;59.37
72570;BME280;60594;50.204;8.844;2023-03-01T09:21:32;100851.44;;;4.54;57.87
72570;BME280;60594;50.204;8.844;2023-03-01T09:23:58;100863.81;;;4.33;57.89
72570;BME280;60594;50.204;8.844;2023-03-01T09:26:25;100854.94;;;4.54;59.15
72570;BME280;60594;50.204;8.844;2023-03-01T09:28:54;100857.94;;;4.65;58.16
72570;BME280;60594;50.204;8.844;2023-03-01T09:31:22;100852.34;;;4.73;58.48
72570;BME280;60594;50.204;8.844;2023-03-01T09:33:50;100858.66;;;4.87;57.05
72570;BME280;60594;50.204;8.844;2023-03-01T09:36:20;100853.03;;;5.13;59.82
72570;BME280;60594;50.204;8.844;2023-03-01T09:38:47;100853.56;;;5.20;57.80
72570;BME280;60594;50.204;8.844;2023-03-01T09:43:47;100842.09;;;5.02;58.06
72570;BME280;60594;50.204;8.844;2023-03-01T09:46:15;100846.06;;;5.29;56.91
72570;BME280;60594;50.204;8.844;2023-03-01T09:48:50;100843.06;;;5.37;57.57
72570;BME280;60594;50.204;8.844;2023-03-01T09:51:21;100834.84;;;5.60;55.85
72570;BME280;60594;50.204;8.844;2023-03-01T09:53:51;100834.34;;;5.35;57.06
72570;BME280;60594;50.204;8.844;2023-03-01T09:56:46;100826.41;;;5.70;57.97
72570;BME280;60594;50.204;8.844;2023-03-01T10:01:59;100821.56;;;5.78;56.22
72570;BME280;60594;50.204;8.844;2023-03-01T10:04:47;100829.03;;;6.21;53.93
72570;BME280;60594;50.204;8.844;2023-03-01T10:09:51;100829.91;;;6.05;53.92
72570;BME280;60594;50.204;8.844;2023-03-01T10:12:21;100813.91;;;5.91;55.41
72570;BME280;60594;50.204;8.844;2023-03-01T10:14:59;100825.41;;;6.24;55.05
72570;BME280;60594;50.204;8.844;2023-03-01T10:17:50;100814.53;;;6.76;53.37
72570;BME280;60594;50.204;8.844;2023-03-01T10:20:23;100822.34;;;6.95;50.92
72570;BME280;60594;50.204;8.844;2023-03-01T10:22:51;100821.56;;;7.08;49.54
72570;BME280;60594;50.204;8.844;2023-03-01T10:25:47;100816.72;;;7.01;51.60
72570;BME280;60594;50.204;8.844;2023-03-01T10:28:20;100809.56;;;7.48;50.44
72570;BME280;60594;50.204;8.844;2023-03-01T10:30:50;100812.88;;;7.81;47.50
72570;BME280;60594;50.204;8.844;2023-03-01T10:33:21;100799.50;;;7.69;47.21
72570;BME280;60594;50.204;8.844;2023-03-01T10:35:47;100800.53;;;8.10;47.14
72570;BME280;60594;50.204;8.844;2023-03-01T10:38:16;100794.81;;;8.31;45.96
72570;BME280;60594;50.204;8.844;2023-03-01T10:40:53;100796.44;;;8.62;45.99
72570;BME280;60594;50.204;8.844;2023-03-01T10:43:21;100799.84;;;8.50;45.81
72570;BME280;60594;50.204;8.844;2023-03-01T10:45:47;100784.75;;;8.64;47.21
72570;BME280;60594;50.204;8.844;2023-03-01T10:48:17;100786.47;;;8.65;44.23
72570;BME280;60594;50.204;8.844;2023-03-01T10:50:48;100774.28;;;8.89;44.39
72570;BME280;60594;50.204;8.844;2023-03-01T10:55:58;100781.59;;;8.86;45.53
72570;BME280;60594;50.204;8.844;2023-03-01T10:58:25;100767.50;;;8.57;43.46
72570;BME280;60594;50.204;8.844;2023-03-01T11:01:00;100763.06;;;8.44;45.13
72570;BME280;60594;50.204;8.844;2023-03-01T11:03:36;100761.53;;;8.40;44.58
72570;BME280;60594;50.204;8.844;2023-03-01T11:08:44;100750.41;;;8.61;45.83
72570;BME280;60594;50.204;8.844;2023-03-01T11:11:23;100743.50;;;8.59;43.99
72570;BME280;60594;50.204;8.844;2023-03-01T11:13:59;100737.19;;;8.74;44.62
72570;BME280;60594;50.204;8.844;2023-03-01T11:16:33;100729.78;;;8.79;44.06
72570;BME280;60594;50.204;8.844;2023-03-01T11:19:15;100729.41;;;8.71;44.32
72570;BME280;60594;50.204;8.844;2023-03-01T11:22:02;100737.56;;;8.68;43.45
72570;BME280;60594;50.204;8.844;2023-03-01T11:24:48;100730.34;;;8.84;45.63
72570;BME280;60594;50.204;8.844;2023-03-01T11:29:48;100714.75;;;8.92;43.76
72570;BME280;60594;50.204;8.844;2023-03-01T11:32:17;100719.88;;;8.95;45.58
72570;BME280;60594;50.204;8.844;2023-03-01T11:35:23;100714.88;;;8.76;44.12
72570;BME280;60594;50.204;8.844;2023-03-01T11:38:26;100708.84;;;8.74;43.60
72570;BME280;60594;50.204;8.844;2023-03-01T11:43:31;100703.47;;;8.48;43.70
72570;BME280;60594;50.204;8.844;2023-03-01T11:46:31;100705.69;;;8.27;44.63
72570;BME280;60594;50.204;8.844;2023-03-01T11:51:53;100699.41;;;8.42;44.20
72570;BME280;60594;50.204;8.844;2023-03-01T11:57:25;100696.50;;;8.59;44.51
72570;BME280;60594;50.204;8.844;2023-03-01T12:08:41;100671.25;;;8.66;45.15
72570;BME280;60594;50.204;8.844;2023-03-01T12:20:02;100661.31;;;8.56;44.25
72570;BME280;60594;50.204;8.844;2023-03-01T12:25:25;100646.84;;;8.74;47.38
72570;BME280;60594;50.204;8.844;2023-03-01T12:31:11;100648.31;;;8.65;43.44
72570;BME280;60594;50.204;8.844;2023-03-01T12:33:58;100639.38;;;8.66;46.05
72570;BME280;60594;50.204;8.844;2023-03-01T12:39:53;100631.78;;;8.74;44.65
72570;BME280;60594;50.204;8.844;2023-03-01T12:42:10;100624.84;;;8.72;43.01
72570;BME280;60594;50.204;8.844;2023-03-01T12:48:08;100617.09;;;8.81;44.65
72570;BME280;60594;50.204;8.844;2023-03-01T12:50:44;100611.19;;;8.90;43.66
72570;BME280;60594;50.204;8.844;2023-03-01T12:53:31;100606.47;;;8.69;42.84
72570;BME280;60594;50.204;8.844;2023-03-01T12:56:01;100603.50;;;8.47;41.91
72570;BME280;60594;50.204;8.844;2023-03-01T12:58:51;100601.44;;;8.38;44.05
72570;BME280;60594;50.204;8.844;2023-03-01T13:01:38;100597.06;;;8.37;42.09
72570;BME280;60594;50.204;8.844;2023-03-01T13:17:57;100586.59;;;8.48;41.95
72570;BME280;60594;50.204;8.844;2023-03-01T13:20:29;100583.34;;;8.57;41.91
72570;BME280;60594;50.204;8.844;2023-03-01T13:23:27;100575.22;;;8.46;42.11
72570;BME280;60594;50.204;8.844;2023-03-01T13:26:11;100571.78;;;8.58;41.12
72570;BME280;60594;50.204;8.844;2023-03-01T13:33:58;100561.28;;;8.69;42.72
72570;BME280;60594;50.204;8.844;2023-03-01T13:39:26;100547.56;;;8.75;42.13
72570;BME280;60594;50.204;8.844;2023-03-01T13:41:54;100548.34;;;8.77;41.34
72570;BME280;60594;50.204;8.844;2023-03-01T13:44:29;100540.47;;;8.75;41.33
72570;BME280;60594;50.204;8.844;2023-03-01T13:49:41;100536.63;;;8.67;41.67
72570;BME280;60594;50.204;8.844;2023-03-01T13:55:17;100531.56;;;8.50;40.90
72570;BME280;60594;50.204;8.844;2023-03-01T13:57:48;100528.75;;;8.65;41.98
72570;BME280;60594;50.204;8.844;2023-03-01T14:05:33;100516.34;;;9.03;42.58
72570;BME280;60594;50.204;8.844;2023-03-01T14:08:03;100506.78;;;9.13;41.78
72570;BME280;60594;50.204;8.844;2023-03-01T14:10:48;100514.56;;;9.04;42.36
72570;BME280;60594;50.204;8.844;2023-03-01T14:13:30;100524.13;;;9.06;40.98
72570;BME280;60594;50.204;8.844;2023-03-01T14:16:18;100515.63;;;9.01;42.61
72570;BME280;60594;50.204;8.844;2023-03-01T14:19:18;100527.84;;;8.91;42.29
72570;BME280;60594;50.204;8.844;2023-03-01T14:21:46;100521.00;;;8.75;41.70
72570;BME280;60594;50.204;8.844;2023-03-01T14:24:20;100525.38;;;8.88;42.53
72570;BME280;60594;50.204;8.844;2023-03-01T14:26:49;100513.91;;;8.75;42.21
72570;BME280;60594;50.204;8.844;2023-03-01T14:29:27;100517.31;;;8.90;43.32
72570;BME280;60594;50.204;8.844;2023-03-01T14:31:54;100515.94;;;8.97;41.90
72570;BME280;60594;50.204;8.844;2023-03-01T14:34:22;100516.56;;;8.75;42.66
72570;BME280;60594;50.204;8.844;2023-03-01T14:36:49;100512.63;;;8.81;41.86
72570;BME280;60594;50.204;8.844;2023-03-01T14:39:18;100520.94;;;8.89;41.94
72570;BME280;60594;50.204;8.844;2023-03-01T14:41:44;100509.13;;;8.93;41.82
72570;BME280;60594;50.204;8.844;2023-03-01T14:44:17;100515.31;;;8.93;44.56
72570;BME280;60594;50.204;8.844;2023-03-01T14:46:45;100509.00;;;8.82;42.33
72570;BME280;60594;50.204;8.844;2023-03-01T14:49:14;100507.41;;;8.67;42.82